createdAt,value
2023-04-21T00:01:30.071Z,10.71
2023-04-21T00:03:58.135Z,10.67
2023-04-21T00:06:27.042Z,10.64
2023-04-21T00:08:54.974Z,10.61
2023-04-21T00:11:22.891Z,10.60
2023-04-21T00:13:50.773Z,10.58
2023-04-21T00:16:18.527Z,10.57
2023-04-21T00:18:48.000Z,10.55
2023-04-21T00:21:16.383Z,10.52
2023-04-21T00:23:44.213Z,10.49
2023-04-21T00:26:11.955Z,10.46
2023-04-21T00:28:42.089Z,10.41
2023-04-21T00:31:09.980Z,10.37
2023-04-21T00:33:37.838Z,10.33
2023-04-21T00:36:06.219Z,10.30
2023-04-21T00:38:34.054Z,10.25
2023-04-21T00:41:01.938Z,10.22
2023-04-21T00:43:29.868Z,10.19
2023-04-21T00:45:57.984Z,10.16
2023-04-21T00:48:25.740Z,10.10
2023-04-21T00:50:53.738Z,10.05
2023-04-21T00:53:22.233Z,10.00
2023-04-21T00:55:50.607Z,9.95
2023-04-21T00:58:18.471Z,9.91
2023-04-21T01:00:46.336Z,9.87
2023-04-21T01:03:14.433Z,9.83
2023-04-21T01:05:42.888Z,9.81
2023-04-21T01:08:13.394Z,9.78
2023-04-21T01:10:41.207Z,9.75
2023-04-21T01:13:09.175Z,9.72
2023-04-21T01:15:36.916Z,9.67
2023-04-21T01:18:06.131Z,9.64
2023-04-21T01:20:34.520Z,9.62
2023-04-21T01:23:02.340Z,9.60
2023-04-21T01:25:30.266Z,9.56
2023-04-21T01:27:58.134Z,9.50
2023-04-21T01:30:25.848Z,9.43
2023-04-21T01:32:53.822Z,9.34
2023-04-21T01:35:21.673Z,9.21
2023-04-21T01:37:49.601Z,9.08
2023-04-21T01:40:19.977Z,8.91
2023-04-21T01:42:47.786Z,8.72
2023-04-21T01:45:15.655Z,8.52
2023-04-21T01:47:43.569Z,8.32
2023-04-21T01:50:11.679Z,8.12
2023-04-21T01:52:39.454Z,7.91
2023-04-21T01:55:07.669Z,7.69
2023-04-21T01:57:36.232Z,7.46
2023-04-21T02:00:05.237Z,7.27
2023-04-21T02:02:43.086Z,7.07
2023-04-21T02:05:14.189Z,6.86
2023-04-21T02:07:42.953Z,6.67
2023-04-21T02:10:11.589Z,6.48
2023-04-21T02:12:39.335Z,6.31
2023-04-21T02:15:07.821Z,6.16
2023-04-21T02:17:36.774Z,6.02
2023-04-21T02:20:05.770Z,5.88
2023-04-21T02:22:33.690Z,5.74
2023-04-21T02:25:05.747Z,5.59
2023-04-21T02:27:33.877Z,5.46
2023-04-21T02:30:02.184Z,5.34
2023-04-21T02:32:30.301Z,5.23
2023-04-21T02:34:58.121Z,5.13
2023-04-21T02:37:26.654Z,5.02
2023-04-21T02:39:54.433Z,4.92
2023-04-21T02:42:22.150Z,4.83
2023-04-21T02:44:50.090Z,4.73
2023-04-21T02:47:17.919Z,4.62
2023-04-21T02:49:45.750Z,4.51
2023-04-21T02:52:13.652Z,4.39
2023-04-21T02:54:41.627Z,4.30
2023-04-21T02:57:09.950Z,4.21
2023-04-21T02:59:37.760Z,4.12
2023-04-21T03:02:05.624Z,4.03
2023-04-21T03:04:34.302Z,3.96
2023-04-21T03:07:02.303Z,3.88
2023-04-21T03:09:30.049Z,3.81
2023-04-21T03:11:57.796Z,3.74
2023-04-21T03:14:25.602Z,3.68
2023-04-21T03:16:53.459Z,3.62
2023-04-21T03:19:21.580Z,3.56
2023-04-21T03:21:49.659Z,3.52
2023-04-21T03:24:17.496Z,3.48
2023-04-21T03:26:45.304Z,3.44
2023-04-21T03:29:13.069Z,3.41
2023-04-21T03:31:40.799Z,3.37
2023-04-21T03:34:08.521Z,3.33
2023-04-21T03:36:36.255Z,3.31
2023-04-21T03:39:16.908Z,3.31
2023-04-21T03:41:48.400Z,3.36
2023-04-21T03:44:16.151Z,3.43
2023-04-21T03:46:43.995Z,3.50
2023-04-21T03:49:11.736Z,3.57
2023-04-21T03:51:39.463Z,3.64
2023-04-21T03:54:08.421Z,3.79
2023-04-21T03:56:36.260Z,4.00
2023-04-21T03:59:04.480Z,4.21
2023-04-21T04:02:48.813Z,4.41
2023-04-21T04:05:16.807Z,4.79
2023-04-21T04:07:45.282Z,5.12
2023-04-21T04:10:13.177Z,5.49
2023-04-21T04:12:41.138Z,5.85
2023-04-21T04:15:09.619Z,6.18
2023-04-21T04:17:37.582Z,6.61
2023-04-21T04:20:08.450Z,7.13
2023-04-21T04:22:36.379Z,7.70
2023-04-21T04:25:05.410Z,8.28
2023-04-21T04:27:34.691Z,8.86
2023-04-21T04:34:38.446Z,10.97
2023-04-21T04:37:06.682Z,12.00
2023-04-21T04:39:35.166Z,13.21
2023-04-21T04:42:03.820Z,13.88
2023-04-21T11:04:37.586Z,18.97
2023-04-21T11:07:08.360Z,18.97
2023-04-21T11:09:38.458Z,18.97
2023-04-21T11:12:11.973Z,18.97
2023-04-21T11:14:42.250Z,18.95
2023-04-21T11:17:18.210Z,18.86
2023-04-21T11:19:56.759Z,18.88
2023-04-21T11:22:26.913Z,18.90
2023-04-21T11:24:57.259Z,18.88
2023-04-21T11:27:32.151Z,18.85
2023-04-21T11:30:03.849Z,18.86
2023-04-21T11:32:31.879Z,18.81
2023-04-21T11:35:00.573Z,18.79
2023-04-21T11:37:28.588Z,18.88
2023-04-21T11:39:58.469Z,19.00
2023-04-21T11:42:27.724Z,19.05
2023-04-21T11:44:57.181Z,19.19
2023-04-21T11:47:28.322Z,19.33
2023-04-21T11:49:58.936Z,19.34
2023-04-21T11:52:33.498Z,19.33
2023-04-21T11:55:08.266Z,19.38
2023-04-21T11:57:36.721Z,19.41
2023-04-21T12:00:06.754Z,19.44
2023-04-21T12:02:35.168Z,19.48
2023-04-21T12:05:13.912Z,19.49
2023-04-21T12:07:43.515Z,19.51
2023-04-21T12:10:12.596Z,19.55
2023-04-21T12:12:41.810Z,19.72
2023-04-21T12:15:12.252Z,19.78
2023-04-21T12:17:48.119Z,19.71
2023-04-21T12:20:17.969Z,19.62
2023-04-21T12:22:46.746Z,19.60
2023-04-21T12:25:15.508Z,19.62
2023-04-21T12:27:51.173Z,19.60
2023-04-21T12:30:20.269Z,19.60
2023-04-21T12:32:48.594Z,19.61
2023-04-21T12:35:16.863Z,19.54
2023-04-21T12:37:45.235Z,19.53
2023-04-21T12:40:13.264Z,19.57
2023-04-21T12:42:41.619Z,19.66
2023-04-21T12:45:10.552Z,19.67
2023-04-21T12:47:39.464Z,19.66
2023-04-21T12:50:08.690Z,19.72
2023-04-21T12:52:36.798Z,19.71
2023-04-21T12:55:05.033Z,19.57
2023-04-21T12:57:33.619Z,19.50
2023-04-21T13:00:01.716Z,19.53
2023-04-21T13:02:31.512Z,19.55
2023-04-21T13:05:00.009Z,19.51
2023-04-21T13:07:31.316Z,19.48
2023-04-21T13:09:59.392Z,19.46
2023-04-21T13:12:27.299Z,19.44
2023-04-21T13:14:55.220Z,19.41
2023-04-21T13:17:23.729Z,19.41
2023-04-21T13:19:52.293Z,19.37
2023-04-21T13:22:20.558Z,19.40
2023-04-21T13:24:48.619Z,19.48
2023-04-21T13:27:16.672Z,19.53
2023-04-21T13:29:44.591Z,19.51
2023-04-21T13:32:15.590Z,19.53
2023-04-21T13:34:43.525Z,19.58
2023-04-21T13:37:16.548Z,19.65
2023-04-21T13:39:44.497Z,19.73
2023-04-21T13:42:12.548Z,19.76
2023-04-21T13:44:40.707Z,19.73
2023-04-21T13:47:11.788Z,19.66
2023-04-21T13:49:40.230Z,19.57
2023-04-21T13:52:08.236Z,19.55
2023-04-21T13:54:36.159Z,19.63
2023-04-21T13:57:05.624Z,19.73
2023-04-21T13:59:34.332Z,19.72
2023-04-21T14:02:02.710Z,19.65
2023-04-21T14:04:31.259Z,19.60
2023-04-21T14:07:00.255Z,19.60
2023-04-21T14:09:28.669Z,19.62
2023-04-21T14:11:57.044Z,19.57
2023-04-21T14:14:37.754Z,19.47
2023-04-21T14:17:07.976Z,19.41
2023-04-21T14:19:36.820Z,19.43
2023-04-21T14:22:04.999Z,19.42
2023-04-21T14:24:33.061Z,19.45
2023-04-21T14:27:01.229Z,19.40
2023-04-21T14:29:29.203Z,19.35
2023-04-21T14:31:58.792Z,19.33
2023-04-21T14:34:27.216Z,19.28
2023-04-21T14:36:55.969Z,19.32
2023-04-21T14:39:24.462Z,19.35
2023-04-21T14:41:52.495Z,19.28
2023-04-21T14:44:20.648Z,19.21
2023-04-21T14:47:00.868Z,19.20
2023-04-21T14:49:34.517Z,19.21
2023-04-21T14:52:03.843Z,19.22
2023-04-21T14:54:31.972Z,19.26
2023-04-21T14:57:17.828Z,19.27
2023-04-21T14:59:47.009Z,19.25
2023-04-21T15:02:15.662Z,19.22
2023-04-21T15:04:44.246Z,19.23
2023-04-21T15:07:12.827Z,19.20
2023-04-21T15:09:45.769Z,19.17
2023-04-21T15:12:15.295Z,19.14
2023-04-21T15:14:43.426Z,19.09
2023-04-21T15:17:11.684Z,19.04
2023-04-21T15:19:39.789Z,19.00
2023-04-21T15:22:07.915Z,18.98
2023-04-21T15:24:35.972Z,18.98
2023-04-21T15:27:04.313Z,19.01
2023-04-21T15:29:32.721Z,19.04
2023-04-21T15:32:00.952Z,19.03
2023-04-21T15:34:28.802Z,18.99
2023-04-21T15:36:57.480Z,18.97
2023-04-21T15:39:25.861Z,18.96
2023-04-21T15:41:55.221Z,18.96
2023-04-21T15:44:23.278Z,18.96
2023-04-21T15:46:51.400Z,18.93
2023-04-21T15:49:19.384Z,18.88
2023-04-21T15:51:47.358Z,18.83
2023-04-21T15:54:16.259Z,18.80
2023-04-21T15:56:44.240Z,18.77
2023-04-21T15:59:12.177Z,18.73
2023-04-21T16:01:40.404Z,18.67
2023-04-21T16:04:08.820Z,18.62
2023-04-21T16:06:38.079Z,18.54
2023-04-21T16:09:06.308Z,18.46
2023-04-21T16:11:34.543Z,18.40
2023-04-21T16:14:02.710Z,18.36
2023-04-21T16:16:30.649Z,18.33
2023-04-21T16:18:58.829Z,18.30
2023-04-21T16:21:27.995Z,18.25
2023-04-21T16:23:56.429Z,18.20
2023-04-21T16:26:27.797Z,18.15
2023-04-21T16:28:57.140Z,18.09
2023-04-21T16:31:25.621Z,18.04
2023-04-21T16:33:59.410Z,17.99
2023-04-21T16:36:28.468Z,17.92
2023-04-21T16:38:57.384Z,17.87
2023-04-21T16:41:25.524Z,17.82
2023-04-21T16:43:53.573Z,17.76
2023-04-21T16:46:22.144Z,17.70
2023-04-21T16:48:50.109Z,17.65
2023-04-21T16:51:18.098Z,17.57
2023-04-21T16:53:46.120Z,17.50
2023-04-21T16:56:14.891Z,17.42
2023-04-21T16:58:43.038Z,17.35
2023-04-21T17:01:11.647Z,17.29
2023-04-21T17:03:39.704Z,17.24
2023-04-21T17:06:10.851Z,17.18
2023-04-21T17:08:38.882Z,17.13
2023-04-21T17:11:06.936Z,17.06
2023-04-21T17:13:38.203Z,16.98
2023-04-21T17:16:09.681Z,16.91
2023-04-21T17:18:37.641Z,16.84
2023-04-21T17:21:06.371Z,16.77
2023-04-21T17:23:34.725Z,16.69
2023-04-21T17:26:03.762Z,16.61
2023-04-21T17:28:32.162Z,16.53
2023-04-21T17:31:13.633Z,16.44
2023-04-21T17:33:43.873Z,16.33
2023-04-21T17:36:12.405Z,16.25
2023-04-21T17:38:42.704Z,16.15
2023-04-21T17:41:11.547Z,16.06
2023-04-21T17:43:39.593Z,15.97
2023-04-21T17:46:07.902Z,15.88
2023-04-21T17:48:35.960Z,15.79
2023-04-21T17:51:04.147Z,15.70
2023-04-21T17:53:32.137Z,15.61
2023-04-21T17:56:00.231Z,15.52
2023-04-21T17:58:28.483Z,15.42
2023-04-21T18:00:57.177Z,15.30
2023-04-21T18:03:25.788Z,15.18
2023-04-21T18:05:55.061Z,15.05
2023-04-21T18:08:23.366Z,14.91
2023-04-21T18:10:51.270Z,14.77
2023-04-21T18:13:19.482Z,14.63
2023-04-21T18:15:47.472Z,14.45
2023-04-21T18:18:15.460Z,14.25
2023-04-21T18:20:43.544Z,14.07
2023-04-21T18:23:11.855Z,13.87
2023-04-21T18:25:42.930Z,13.66
2023-04-21T18:28:12.820Z,13.44
2023-04-21T18:30:41.448Z,13.22
2023-04-21T18:33:11.784Z,13.02
2023-04-21T18:35:42.096Z,12.82
2023-04-21T18:38:11.960Z,12.63
2023-04-21T18:40:41.379Z,12.45
2023-04-21T18:43:10.616Z,12.26
2023-04-21T18:45:39.313Z,12.09
2023-04-21T18:48:07.529Z,11.91
2023-04-21T18:50:39.859Z,11.76
2023-04-21T18:53:09.141Z,11.61
2023-04-21T18:55:37.731Z,11.45
2023-04-21T18:58:06.520Z,11.29
2023-04-21T19:04:36.721Z,10.92
2023-04-21T19:07:08.307Z,10.79
2023-04-21T19:09:37.476Z,10.66
2023-04-21T19:12:05.645Z,10.53
2023-04-21T19:14:42.708Z,10.39
2023-04-21T19:17:14.480Z,10.25
2023-04-21T19:19:43.163Z,10.10
2023-04-21T19:22:11.111Z,9.97
2023-04-21T19:24:39.342Z,9.86
2023-04-21T19:27:08.086Z,9.75
2023-04-21T19:29:37.102Z,9.65
2023-04-21T19:32:05.144Z,9.55
2023-04-21T19:34:33.113Z,9.45
2023-04-21T19:37:01.248Z,9.35
2023-04-21T19:39:29.368Z,9.26
2023-04-21T19:41:58.032Z,9.16
2023-04-21T19:44:25.936Z,9.06
2023-04-21T19:46:53.900Z,8.95
2023-04-21T19:49:21.833Z,8.85
2023-04-21T19:51:49.797Z,8.75
2023-04-21T19:54:17.871Z,8.66
2023-04-21T19:56:45.843Z,8.57
2023-04-21T19:59:13.892Z,8.49
2023-04-21T20:01:41.949Z,8.39
2023-04-21T20:04:11.982Z,8.29
2023-04-21T20:06:41.561Z,8.20
2023-04-21T20:09:10.547Z,8.13
2023-04-21T20:11:38.496Z,8.06
2023-04-21T20:14:06.451Z,8.00
2023-04-21T20:16:34.606Z,7.93
2023-04-21T20:19:02.712Z,7.86
2023-04-21T20:21:30.638Z,7.79
2023-04-21T20:23:58.646Z,7.74
2023-04-21T20:26:26.700Z,7.70
2023-04-21T20:28:54.921Z,7.65
2023-04-21T20:31:25.723Z,7.60
2023-04-21T20:33:53.850Z,7.54
2023-04-21T20:36:22.286Z,7.49
2023-04-21T20:38:50.832Z,7.44
2023-04-21T20:41:18.769Z,7.38
2023-04-21T20:43:46.713Z,7.34
2023-04-21T20:46:15.643Z,7.29
2023-04-21T20:48:43.616Z,7.26
2023-04-21T20:51:12.411Z,7.22
2023-04-21T20:53:40.527Z,7.16
2023-04-21T20:56:08.614Z,7.09
2023-04-21T20:58:36.763Z,7.05
2023-04-21T21:01:04.863Z,7.01
2023-04-21T21:03:33.033Z,6.98
2023-04-21T21:06:01.074Z,6.94
2023-04-21T21:08:29.236Z,6.89
2023-04-21T21:10:57.646Z,6.86
2023-04-21T21:13:25.990Z,6.83
2023-04-21T21:15:54.025Z,6.80
2023-04-21T21:18:21.930Z,6.75
2023-04-21T21:20:49.861Z,6.71
2023-04-21T21:23:17.803Z,6.66
2023-04-21T21:25:45.820Z,6.61
2023-04-21T21:28:13.660Z,6.58
2023-04-21T21:30:41.576Z,6.55
2023-04-21T21:33:09.519Z,6.51
2023-04-21T21:35:37.570Z,6.48
2023-04-21T21:38:05.627Z,6.45
2023-04-21T21:40:33.570Z,6.42
2023-04-21T21:43:01.747Z,6.38
2023-04-21T21:45:29.839Z,6.34
2023-04-21T21:47:58.095Z,6.31
2023-04-21T21:50:26.084Z,6.27
2023-04-21T21:52:54.129Z,6.24
2023-04-21T21:55:22.229Z,6.20
2023-04-21T21:57:50.478Z,6.16
2023-04-21T22:00:18.755Z,6.11
2023-04-21T22:02:46.678Z,6.07
2023-04-21T22:05:15.061Z,6.02
2023-04-21T22:07:43.173Z,5.97
2023-04-21T22:10:11.913Z,5.92
2023-04-21T22:12:39.926Z,5.88
2023-04-21T22:15:08.947Z,5.84
2023-04-21T22:17:37.972Z,5.79
2023-04-21T22:20:07.539Z,5.76
2023-04-21T22:22:36.164Z,5.72
2023-04-21T22:25:05.754Z,5.69
2023-04-21T22:27:34.257Z,5.65
2023-04-21T22:30:03.644Z,5.62
2023-04-21T22:32:32.538Z,5.57
2023-04-21T22:35:01.486Z,5.53
2023-04-21T22:37:29.866Z,5.49
2023-04-21T22:39:57.836Z,5.46
2023-04-21T22:42:26.153Z,5.41
2023-04-21T22:44:54.200Z,5.38
2023-04-21T22:47:22.802Z,5.34
2023-04-21T22:49:51.535Z,5.30
2023-04-21T22:52:19.512Z,5.26
2023-04-21T22:54:47.505Z,5.21
2023-04-21T22:57:15.479Z,5.17
2023-04-21T22:59:43.403Z,5.13
2023-04-21T23:02:11.604Z,5.10
2023-04-21T23:04:39.614Z,5.08
2023-04-21T23:07:07.791Z,5.06
2023-04-21T23:09:35.865Z,5.02
2023-04-21T23:12:06.115Z,5.00
2023-04-21T23:14:34.237Z,4.96
2023-04-21T23:17:02.293Z,4.93
2023-04-21T23:19:30.273Z,4.90
2023-04-21T23:21:58.262Z,4.86
2023-04-21T23:24:26.312Z,4.83
2023-04-21T23:26:54.226Z,4.80
2023-04-21T23:29:22.133Z,4.71
2023-04-21T23:31:50.182Z,4.65
2023-04-21T23:34:18.181Z,4.64
2023-04-21T23:36:46.100Z,4.62
2023-04-21T23:39:14.124Z,4.58
2023-04-21T23:41:42.526Z,4.55
2023-04-21T23:44:11.283Z,4.54
2023-04-21T23:46:39.443Z,4.49
2023-04-21T23:49:08.984Z,4.43
2023-04-21T23:51:37.224Z,4.39
2023-04-21T23:54:05.351Z,4.36
2023-04-21T23:56:33.418Z,4.33
2023-04-21T23:59:01.711Z,4.29
